Time;durP1;ratioP1;P1;durP2;ratioP2;P2;SDS_P1;SDS_P2;PMS_P1;PMS_P2;Temp;Humidity;BMP_temperature;BMP_pressure;BME280_temperature;BME280_humidity;BME280_pressure;Samples;Min_cycle;Max_cycle;Signal;HPM_P1;HPM_P2
2021/10/10 00:00:57;;;;;;;35.70;16.60;;;;;;;0.91;65.58;101335.80;1653734;85;21535;-56
2021/10/10 00:03:23;;;;;;;46.50;17.30;;;;;;;0.88;65.55;101331.33;1655902;85;20983;-57
2021/10/10 00:05:49;;;;;;;39.40;16.23;;;;;;;0.86;65.52;101333.05;1652749;85;21045;-57
2021/10/10 00:08:16;;;;;;;43.57;18.07;;;;;;;0.83;65.49;101333.03;1664933;83;20936;-56
2021/10/10 00:10:42;;;;;;;46.20;16.63;;;;;;;0.81;65.58;101335.19;1654420;85;21109;-56
2021/10/10 00:13:08;;;;;;;40.73;16.07;;;;;;;0.80;65.68;101326.77;1640201;85;21374;-57
2021/10/10 00:15:36;;;;;;;49.57;17.30;;;;;;;0.79;65.74;101328.95;1663910;84;21062;-56
2021/10/10 00:18:02;;;;;;;40.70;17.13;;;;;;;0.78;65.83;101329.39;1632043;86;21421;-55
2021/10/10 00:20:28;;;;;;;45.40;16.63;;;;;;;0.77;65.93;101326.74;1698272;83;21777;-57
2021/10/10 00:22:55;;;;;;;46.03;17.83;;;;;;;0.75;65.98;101327.61;1693468;83;21069;-57
2021/10/10 00:25:21;;;;;;;41.83;15.77;;;;;;;0.75;66.05;101323.62;1696511;83;21129;-56
2021/10/10 00:27:48;;;;;;;34.37;16.00;;;;;;;0.75;66.10;101326.71;1696610;83;21061;-57
2021/10/10 00:30:14;;;;;;;40.87;18.23;;;;;;;0.73;66.12;101322.70;1638638;85;22607;-56
2021/10/10 00:32:41;;;;;;;34.97;14.80;;;;;;;0.72;66.20;101320.02;1695553;83;21059;-57
2021/10/10 00:35:09;;;;;;;40.97;16.40;;;;;;;0.73;66.28;101327.11;1695545;83;21388;-56
2021/10/10 00:37:36;;;;;;;38.20;15.60;;;;;;;0.73;66.36;101328.44;1693600;83;21436;-55
2021/10/10 00:40:03;;;;;;;35.70;15.80;;;;;;;0.75;66.42;101325.39;1694909;83;21097;-56
2021/10/10 00:42:31;;;;;;;43.27;17.20;;;;;;;0.76;66.47;101325.84;1688456;83;21491;-56
2021/10/10 00:44:57;;;;;;;36.17;16.17;;;;;;;0.77;66.54;101323.62;1684960;83;21093;-57
2021/10/10 00:47:23;;;;;;;41.07;16.93;;;;;;;0.78;66.59;101324.09;1692729;83;21160;-55
2021/10/10 00:49:50;;;;;;;37.77;15.10;;;;;;;0.80;66.60;101321.03;1684407;83;21500;-56
2021/10/10 00:52:17;;;;;;;41.17;15.60;;;;;;;0.80;66.66;101321.47;1689949;83;21078;-55
2021/10/10 00:54:47;;;;;;;37.00;15.13;;;;;;;0.82;66.70;101323.72;1689983;82;21034;-55
2021/10/10 00:57:14;;;;;;;32.90;13.87;;;;;;;0.83;66.78;101323.75;1693801;83;21081;-55
2021/10/10 00:59:46;;;;;;;39.80;16.53;;;;;;;0.86;66.82;101323.78;1689385;83;21529;-56
2021/10/10 01:02:12;;;;;;;34.57;13.60;;;;;;;0.87;66.86;101320.69;1691129;82;20998;-55
2021/10/10 01:04:42;;;;;;;36.67;14.80;;;;;;;0.88;66.98;101322.05;1687556;83;21145;-54
2021/10/10 01:07:08;;;;;;;38.73;15.03;;;;;;;0.90;67.02;101317.67;1691522;83;21973;-56
2021/10/10 01:09:35;;;;;;;43.63;14.77;;;;;;;0.91;67.01;101314.59;1690995;83;21209;-56
2021/10/10 01:12:04;;;;;;;37.80;13.80;;;;;;;0.93;67.09;101319.48;1694082;83;21386;-55
2021/10/10 01:14:34;;;;;;;33.80;15.17;;;;;;;0.93;67.11;101322.14;1692019;83;21154;-55
2021/10/10 01:17:00;;;;;;;36.40;15.10;;;;;;;0.92;67.14;101313.29;1687444;83;21088;-56
2021/10/10 01:19:33;;;;;;;32.87;12.30;;;;;;;0.93;67.27;101315.52;1690425;83;21134;-56
2021/10/10 01:22:00;;;;;;;46.23;15.23;;;;;;;0.94;67.34;101314.61;1689553;83;21047;-56
2021/10/10 01:24:27;;;;;;;31.73;13.60;;;;;;;0.97;67.39;101312.02;1691797;83;21086;-55
2021/10/10 01:26:53;;;;;;;45.60;14.87;;;;;;;0.98;67.40;101308.50;1687550;83;21117;-56
2021/10/10 01:29:20;;;;;;;30.27;13.30;;;;;;;1.01;67.45;101312.11;1689981;83;21138;-55
2021/10/10 01:31:46;;;;;;;40.77;13.97;;;;;;;1.02;67.49;101308.56;1684092;83;22644;-55
2021/10/10 01:34:12;;;;;;;39.60;14.90;;;;;;;1.05;67.49;101311.27;1690663;83;21110;-56
2021/10/10 01:36:39;;;;;;;40.27;15.57;;;;;;;1.08;67.47;101309.11;1688789;82;21029;-55
2021/10/10 01:39:05;;;;;;;31.13;14.43;;;;;;;1.10;67.48;101310.92;1694800;82;21116;-55
2021/10/10 01:41:33;;;;;;;35.07;14.40;;;;;;;1.11;67.50;101306.05;1694937;83;21041;-55
2021/10/10 01:44:00;;;;;;;40.67;13.90;;;;;;;1.12;67.51;101306.50;1639372;86;21170;-55
2021/10/10 01:46:26;;;;;;;33.03;13.20;;;;;;;1.13;67.42;101302.99;1697164;83;21071;-55
2021/10/10 01:48:53;;;;;;;43.23;16.03;;;;;;;1.14;67.35;101302.56;1696664;83;21069;-55
2021/10/10 01:51:19;;;;;;;46.10;15.70;;;;;;;1.14;67.39;101296.82;1701107;83;21102;-54
2021/10/10 01:53:45;;;;;;;35.00;15.13;;;;;;;1.15;67.43;101297.72;1702489;82;21061;-55
2021/10/10 01:56:12;;;;;;;46.70;15.67;;;;;;;1.17;67.44;101298.64;1691802;83;21133;-56
2021/10/10 01:58:38;;;;;;;37.90;16.47;;;;;;;1.17;67.47;101296.41;1694175;82;21049;-55
2021/10/10 02:01:05;;;;;;;39.07;14.50;;;;;;;1.19;67.48;101298.23;1702664;82;21061;-55
2021/10/10 02:03:32;;;;;;;36.17;14.87;;;;;;;1.21;67.54;101293.81;1697620;82;21095;-55
2021/10/10 02:05:58;;;;;;;38.43;14.57;;;;;;;1.24;67.55;101303.16;1694673;82;21061;-55
2021/10/10 02:08:25;;;;;;;36.33;14.17;;;;;;;1.27;67.66;101300.98;1697926;82;21155;-55
2021/10/10 02:10:51;;;;;;;39.97;16.10;;;;;;;1.29;67.73;101301.44;1698956;82;21495;-55
2021/10/10 02:13:18;;;;;;;40.77;14.80;;;;;;;1.29;67.85;101301.44;1698170;83;21136;-55
2021/10/10 02:15:45;;;;;;;38.57;15.50;;;;;;;1.33;67.88;101307.70;1694209;82;21066;-55
2021/10/10 02:18:11;;;;;;;36.97;14.60;;;;;;;1.34;67.88;101307.72;1698610;82;21135;-54
2021/10/10 02:20:38;;;;;;;40.50;15.83;;;;;;;1.35;67.91;101305.96;1693754;83;22354;-55
2021/10/10 02:23:04;;;;;;;36.97;15.63;;;;;;;1.35;67.92;101306.86;1693307;82;21169;-56
2021/10/10 02:25:32;;;;;;;48.97;18.60;;;;;;;1.37;67.89;101306.41;1695322;83;21094;-55
2021/10/10 02:27:59;;;;;;;32.63;15.10;;;;;;;1.39;67.84;101301.14;1700210;82;21307;-55
2021/10/10 02:30:25;;;;;;;39.37;16.57;;;;;;;1.41;67.94;101300.73;1691418;82;21087;-55
2021/10/10 02:32:51;;;;;;;36.60;16.20;;;;;;;1.42;67.99;101303.84;1696688;82;21862;-56
2021/10/10 02:35:18;;;;;;;42.47;16.47;;;;;;;1.44;68.07;101308.74;1697568;82;21137;-56
2021/10/10 02:37:44;;;;;;;37.90;16.37;;;;;;;1.44;68.08;101304.33;1700200;83;21064;-55
2021/10/10 02:40:12;;;;;;;43.20;16.73;;;;;;;1.45;68.11;101300.77;1701394;82;21085;-54
2021/10/10 02:42:39;;;;;;;41.33;15.53;;;;;;;1.48;68.21;101298.17;1699316;82;21071;-55
2021/10/10 02:45:06;;;;;;;34.27;14.77;;;;;;;1.50;68.24;101302.18;1703164;82;21631;-56
2021/10/10 02:47:34;;;;;;;34.00;15.70;;;;;;;1.51;68.32;101302.64;1702991;83;21097;-55
2021/10/10 02:50:00;;;;;;;41.10;16.87;;;;;;;1.51;68.36;101306.19;1702696;83;20859;-55
2021/10/10 02:52:26;;;;;;;41.97;17.07;;;;;;;1.53;68.43;101308.40;1705863;82;20942;-55
2021/10/10 02:54:53;;;;;;;38.73;16.83;;;;;;;1.54;68.43;101307.97;1702381;83;20965;-55
2021/10/10 02:57:19;;;;;;;40.87;17.07;;;;;;;1.55;68.46;101304.87;1701867;82;20934;-55
2021/10/10 02:59:46;;;;;;;36.90;16.87;;;;;;;1.53;68.53;101304.89;1702983;82;22143;-55
2021/10/10 03:02:13;;;;;;;34.63;15.97;;;;;;;1.54;68.62;101302.66;1703531;82;21912;-55
2021/10/10 03:04:39;;;;;;;36.57;16.90;;;;;;;1.54;68.72;101300.00;1705405;83;21479;-56
2021/10/10 03:07:06;;;;;;;39.70;18.20;;;;;;;1.55;68.72;101295.16;1684748;83;20985;-55
2021/10/10 03:09:33;;;;;;;44.50;18.43;;;;;;;1.57;68.70;101299.16;1703338;83;21099;-55
2021/10/10 03:11:59;;;;;;;38.30;18.53;;;;;;;1.58;68.73;101301.84;1699499;82;21054;-55
2021/10/10 03:14:26;;;;;;;42.03;18.20;;;;;;;1.59;68.78;101298.75;1708419;82;20934;-55
2021/10/10 03:16:52;;;;;;;46.87;19.63;;;;;;;1.61;68.71;101301.89;1702370;82;20997;-56
2021/10/10 03:19:18;;;;;;;42.77;19.33;;;;;;;1.61;68.62;101295.69;1703684;82;21156;-55
2021/10/10 03:21:45;;;;;;;41.03;19.00;;;;;;;1.64;68.52;101299.25;1702608;82;21141;-55
2021/10/10 03:24:12;;;;;;;52.53;19.83;;;;;;;1.67;68.64;101295.75;1703330;82;21037;-55
2021/10/10 03:26:38;;;;;;;40.07;19.23;;;;;;;1.67;68.71;101292.66;1699983;82;21053;-56
2021/10/10 03:29:05;;;;;;;40.53;18.53;;;;;;;1.69;68.75;101280.75;1701588;83;21311;-55
2021/10/10 03:31:32;;;;;;;46.83;20.37;;;;;;;1.72;68.82;101283.41;1699214;82;21085;-55
2021/10/10 03:33:58;;;;;;;40.37;19.77;;;;;;;1.74;68.85;101277.70;1702009;82;22742;-56
2021/10/10 03:36:25;;;;;;;47.63;19.67;;;;;;;1.74;68.91;101282.57;1698221;82;21089;-55
2021/10/10 03:38:51;;;;;;;44.03;20.67;;;;;;;1.76;68.94;101273.30;1689726;83;22318;-55
2021/10/10 03:41:18;;;;;;;40.60;19.80;;;;;;;1.77;69.02;101275.98;1690245;83;21156;-55
2021/10/10 03:43:45;;;;;;;50.97;20.70;;;;;;;1.78;69.05;101273.78;1686069;83;21477;-56
2021/10/10 03:46:11;;;;;;;39.00;19.53;;;;;;;1.79;69.11;101275.53;1691410;83;21554;-55
2021/10/10 03:48:38;;;;;;;45.23;20.17;;;;;;;1.79;69.20;101271.98;1629785;85;21635;-55
2021/10/10 03:51:50;;;;;;;40.13;17.80;;;;;;;1.83;69.27;101270.73;1868144;75;26609;-55
2021/10/10 03:56:50;;;;;;;42.37;19.80;;;;;;;1.82;69.27;101266.72;1841583;76;22577;-55
2021/10/10 03:59:17;;;;;;;52.10;21.50;;;;;;;1.84;69.23;101263.66;1837437;76;20993;-55
2021/10/10 04:01:43;;;;;;;47.40;20.00;;;;;;;1.84;69.16;101263.66;1836782;76;20994;-55
2021/10/10 04:04:10;;;;;;;48.57;20.40;;;;;;;1.85;69.11;101263.68;1839548;76;21016;-55
2021/10/10 04:06:36;;;;;;;42.27;20.87;;;;;;;1.85;69.08;101259.70;1832767;76;21649;-56
2021/10/10 04:09:04;;;;;;;45.23;21.47;;;;;;;1.87;69.07;101257.92;1841657;76;21507;-56
2021/10/10 04:11:30;;;;;;;47.47;22.17;;;;;;;1.88;69.08;101267.67;1836593;76;21529;-56
2021/10/10 04:13:57;;;;;;;47.20;21.60;;;;;;;1.88;69.15;101257.05;1836091;76;20977;-56
2021/10/10 04:16:23;;;;;;;46.40;20.53;;;;;;;1.87;69.18;101263.23;1836403;75;21320;-55
2021/10/10 04:18:49;;;;;;;45.60;22.30;;;;;;;1.89;69.29;101255.29;1840153;75;22545;-56
2021/10/10 04:21:16;;;;;;;44.43;21.90;;;;;;;1.90;69.33;101257.08;1836331;75;21087;-56
2021/10/10 04:23:42;;;;;;;48.63;22.63;;;;;;;1.89;69.37;101255.29;1835818;77;21430;-56
2021/10/10 04:26:09;;;;;;;45.77;23.00;;;;;;;1.88;69.40;101256.16;1841185;75;21030;-56
2021/10/10 04:28:35;;;;;;;51.07;23.93;;;;;;;1.88;69.35;101255.73;1839764;75;21119;-56
2021/10/10 04:31:02;;;;;;;55.93;22.20;;;;;;;1.89;69.40;101264.59;1839622;75;21011;-56
2021/10/10 04:33:29;;;;;;;47.63;23.00;;;;;;;1.90;69.45;101263.28;1777686;78;21680;-57
2021/10/10 04:35:55;;;;;;;45.77;22.53;;;;;;;1.93;69.57;101258.89;1749463;80;21551;-55
2021/10/10 04:38:21;;;;;;;42.20;20.57;;;;;;;1.94;69.66;101265.98;1754621;79;21564;-56
2021/10/10 04:40:48;;;;;;;48.90;20.43;;;;;;;1.96;69.79;101264.23;1752297;79;21086;-56
2021/10/10 04:43:14;;;;;;;49.17;21.90;;;;;;;1.99;69.88;101269.12;1750556;80;21072;-56
2021/10/10 04:45:41;;;;;;;45.00;22.50;;;;;;;2.01;69.93;101266.49;1769435;79;21150;-56
2021/10/10 04:48:07;;;;;;;47.13;21.27;;;;;;;2.02;70.00;101263.86;1765337;79;21042;-56
2021/10/10 04:50:34;;;;;;;43.80;19.87;;;;;;;2.05;70.01;101262.55;1764900;79;21068;-56
2021/10/10 04:53:00;;;;;;;46.27;22.73;;;;;;;2.07;69.99;101266.11;1765757;79;21415;-55
2021/10/10 04:55:27;;;;;;;46.40;22.90;;;;;;;2.09;69.94;101261.71;1762951;79;21050;-55
2021/10/10 04:57:53;;;;;;;40.57;20.60;;;;;;;2.11;69.96;101261.30;1761692;79;23365;-56
2021/10/10 05:00:19;;;;;;;44.00;21.43;;;;;;;2.14;70.02;101261.74;1758773;79;21862;-55
2021/10/10 05:02:45;;;;;;;42.17;20.90;;;;;;;2.16;70.10;101252.03;1785057;78;21053;-55
2021/10/10 05:05:12;;;;;;;43.93;19.60;;;;;;;2.18;70.16;101260.48;1776010;78;21080;-56
2021/10/10 05:07:38;;;;;;;40.43;18.43;;;;;;;2.23;70.12;101264.05;1775631;78;21156;-55
2021/10/10 05:10:07;;;;;;;38.67;18.60;;;;;;;2.30;70.19;101260.16;1746800;80;21121;-55
2021/10/10 05:12:34;;;;;;;40.80;18.57;;;;;;;2.35;70.20;101263.29;1781061;78;20926;-56
2021/10/10 05:15:01;;;;;;;37.70;19.77;;;;;;;2.42;70.22;101269.11;1780978;78;20898;-55
2021/10/10 05:17:30;;;;;;;45.70;20.60;;;;;;;2.49;70.34;101271.37;1723310;80;20903;-55
2021/10/10 05:19:57;;;;;;;44.77;21.27;;;;;;;2.56;70.41;101273.20;1751364;80;21136;-55
2021/10/10 05:22:23;;;;;;;43.63;20.60;;;;;;;2.62;70.48;101271.95;1780847;78;23337;-55
2021/10/10 05:24:50;;;;;;;42.17;21.70;;;;;;;2.68;70.55;101269.76;1783280;78;21073;-55
2021/10/10 05:27:17;;;;;;;44.17;21.17;;;;;;;2.73;70.50;101272.89;1777554;78;21083;-55
2021/10/10 05:29:43;;;;;;;50.10;21.00;;;;;;;2.78;70.53;101279.16;1780623;78;21081;-55
2021/10/10 05:32:09;;;;;;;42.40;21.90;;;;;;;2.81;70.49;101280.92;1760994;79;21017;-56
2021/10/10 05:34:35;;;;;;;38.57;19.80;;;;;;;2.84;70.43;101283.18;1759241;79;21073;-55
2021/10/10 05:37:02;;;;;;;43.37;22.27;;;;;;;2.87;70.48;101282.33;1764040;79;21036;-56
2021/10/10 05:39:29;;;;;;;42.97;21.93;;;;;;;2.90;70.49;101283.22;1761999;79;21132;-55
2021/10/10 05:41:55;;;;;;;36.27;19.83;;;;;;;2.94;70.58;101282.38;1780702;79;21143;-55
2021/10/10 05:44:22;;;;;;;37.50;17.97;;;;;;;2.99;70.68;101279.73;1778903;78;21061;-55
2021/10/10 05:46:48;;;;;;;42.10;19.63;;;;;;;3.04;70.64;101278.91;1777461;78;22803;-55
2021/10/10 05:49:15;;;;;;;37.50;16.10;;;;;;;3.10;70.78;101283.80;1783331;78;21289;-55
2021/10/10 05:51:44;;;;;;;35.63;18.93;;;;;;;3.18;70.72;101282.08;1779425;78;20949;-55
2021/10/10 05:54:11;;;;;;;35.63;19.17;;;;;;;3.25;70.70;101282.11;1781745;78;21558;-55
2021/10/10 05:56:38;;;;;;;39.33;19.90;;;;;;;3.34;70.60;101287.48;1754056;80;21105;-55
2021/10/10 05:59:08;;;;;;;34.63;19.43;;;;;;;3.42;70.18;101290.19;1753217;80;21106;-55
2021/10/10 06:01:33;;;;;;;36.27;19.83;;;;;;;3.49;69.85;101291.14;1752436;80;20946;-55
2021/10/10 06:04:00;;;;;;;39.07;19.00;;;;;;;3.57;69.35;101290.73;1788919;78;22060;-55
2021/10/10 06:06:26;;;;;;;41.43;20.37;;;;;;;3.64;68.96;101288.54;1751861;78;21401;-55
2021/10/10 06:08:53;;;;;;;40.17;21.10;;;;;;;3.71;68.57;101292.56;1783393;78;22073;-55
2021/10/10 06:11:20;;;;;;;41.87;21.60;;;;;;;3.78;68.06;101289.47;1786221;78;20929;-55
2021/10/10 06:13:46;;;;;;;45.93;21.97;;;;;;;3.85;68.24;101287.71;1784725;78;20965;-55
2021/10/10 06:16:14;;;;;;;43.77;21.37;;;;;;;3.91;68.20;101291.75;1754602;80;20974;-55
2021/10/10 06:18:40;;;;;;;37.63;20.87;;;;;;;3.96;67.76;101282.88;1755886;79;21011;-55
2021/10/10 06:21:06;;;;;;;47.47;21.43;;;;;;;4.02;67.58;101288.21;1751940;80;21644;-56
2021/10/10 06:23:33;;;;;;;38.00;18.87;;;;;;;4.08;67.58;101284.70;1780817;78;22232;-56
2021/10/10 06:26:00;;;;;;;32.90;17.93;;;;;;;4.13;67.37;101282.47;1782970;78;21025;-56
2021/10/10 06:28:26;;;;;;;32.40;17.57;;;;;;;4.18;66.97;101282.47;1784694;78;21111;-56
2021/10/10 06:30:53;;;;;;;29.07;16.03;;;;;;;4.25;66.49;101284.73;1748409;80;21125;-56
2021/10/10 06:33:20;;;;;;;32.40;17.10;;;;;;;4.30;66.03;101281.61;1782712;78;21421;-56
2021/10/10 06:35:46;;;;;;;33.03;15.67;;;;;;;4.37;65.80;101284.73;1781664;78;21405;-56
2021/10/10 06:38:13;;;;;;;27.67;13.83;;;;;;;4.42;65.41;101282.50;1783455;78;21718;-56
2021/10/10 06:40:39;;;;;;;24.53;13.00;;;;;;;4.49;65.03;101290.98;1783000;78;21087;-56
2021/10/10 06:43:06;;;;;;;27.90;12.60;;;;;;;4.56;64.97;101292.75;1785318;78;21082;-56
2021/10/10 06:45:32;;;;;;;27.67;13.67;;;;;;;4.66;64.52;101283.42;1784433;78;21096;-56
2021/10/10 06:47:59;;;;;;;33.00;14.03;;;;;;;4.74;64.28;101291.88;1782569;78;21029;-56
2021/10/10 06:50:25;;;;;;;23.33;10.57;;;;;;;4.82;64.17;101285.20;1779141;78;21503;-56
2021/10/10 06:52:51;;;;;;;24.30;10.70;;;;;;;4.92;63.83;101289.64;1777331;78;21339;-57
2021/10/10 06:55:18;;;;;;;19.37;10.50;;;;;;;5.02;63.53;101292.72;1779920;78;21453;-56
2021/10/10 06:57:44;;;;;;;18.17;10.97;;;;;;;5.11;63.23;101290.03;1779245;78;21499;-56
2021/10/10 07:00:13;;;;;;;20.80;11.77;;;;;;;5.20;63.08;101288.69;1779513;78;21156;-56
2021/10/10 07:02:42;;;;;;;21.30;11.30;;;;;;;5.29;62.84;101283.33;1748905;80;21093;-56
2021/10/10 07:05:10;;;;;;;21.80;10.23;;;;;;;5.41;62.58;101288.20;1777714;78;21525;-56
2021/10/10 07:07:36;;;;;;;28.10;12.17;;;;;;;5.50;62.43;101281.06;1778601;78;21286;-56
2021/10/10 07:10:05;;;;;;;22.00;10.47;;;;;;;5.60;62.25;101282.81;1782288;78;21088;-56
2021/10/10 07:12:31;;;;;;;19.30;9.43;;;;;;;5.72;61.88;101277.84;1778903;79;21258;-57
2021/10/10 07:14:57;;;;;;;25.07;8.00;;;;;;;5.83;61.19;101277.80;1778339;79;21541;-56
2021/10/10 07:17:27;;;;;;;14.67;7.43;;;;;;;5.93;60.63;101279.12;1746764;80;21094;-57
2021/10/10 07:20:07;;;;;;;15.80;8.17;;;;;;;6.03;60.29;101279.53;1781499;78;21060;-56
2021/10/10 07:22:32;;;;;;;13.30;6.90;;;;;;;6.14;58.93;101277.21;1776293;78;21445;-55
2021/10/10 07:25:04;;;;;;;20.33;8.77;;;;;;;6.24;58.67;101281.61;1782538;78;22215;-55
2021/10/10 07:27:34;;;;;;;20.10;8.20;;;;;;;6.33;58.17;101280.22;1776448;78;21063;-55
2021/10/10 07:30:01;;;;;;;18.73;8.33;;;;;;;6.42;57.62;101277.03;1780368;78;21054;-55
2021/10/10 07:32:28;;;;;;;14.07;7.57;;;;;;;6.52;57.47;101272.95;1779383;79;21398;-55
2021/10/10 07:34:54;;;;;;;13.77;6.37;;;;;;;6.60;57.27;101269.32;1777778;78;21457;-55
2021/10/10 07:37:20;;;;;;;18.57;7.87;;;;;;;6.72;57.00;101277.23;1756395;80;21058;-55
2021/10/10 07:39:47;;;;;;;18.47;7.77;;;;;;;6.83;56.86;101275.36;1749269;80;21029;-55
2021/10/10 07:42:14;;;;;;;17.40;7.77;;;;;;;6.94;56.45;101269.91;1778294;78;21515;-55
2021/10/10 07:44:45;;;;;;;20.63;7.80;;;;;;;7.06;55.42;101271.11;1753095;80;21836;-55
2021/10/10 07:47:46;;;;;;;16.47;8.00;;;;;;;7.16;55.22;101262.55;1754093;80;21444;-55
2021/10/10 07:49:44;;;;;;;18.87;8.00;;;;;;;7.28;55.25;101266.89;1767317;78;21605;-55
2021/10/10 07:52:10;;;;;;;22.07;8.17;;;;;;;7.39;55.23;101262.31;1751857;79;21056;-55
2021/10/10 07:54:37;;;;;;;17.80;6.47;;;;;;;7.50;55.10;101266.63;1732192;80;21077;-56
2021/10/10 07:57:04;;;;;;;12.60;6.27;;;;;;;7.62;53.85;101260.25;1729129;80;21053;-55
2021/10/10 07:59:30;;;;;;;18.57;7.47;;;;;;;7.73;52.84;101261.01;1731009;80;21557;-55
2021/10/10 08:01:56;;;;;;;15.17;6.73;;;;;;;7.84;52.62;101258.16;1704346;81;21550;-55
2021/10/10 08:04:23;;;;;;;24.93;5.83;;;;;;;7.96;52.20;101252.20;1733072;80;21132;-56
2021/10/10 08:06:50;;;;;;;18.67;7.43;;;;;;;8.08;51.79;101258.30;1732934;80;21610;-54
2021/10/10 08:09:17;;;;;;;15.97;6.67;;;;;;;8.21;51.28;101258.55;1735704;80;21058;-55
2021/10/10 08:11:43;;;;;;;15.30;7.40;;;;;;;8.35;50.96;101248.52;1734055;81;21061;-55
2021/10/10 08:14:10;;;;;;;18.40;6.10;;;;;;;8.50;50.87;101250.09;1732891;80;21111;-55
2021/10/10 08:16:39;;;;;;;10.43;4.63;;;;;;;8.64;50.48;101250.30;1730770;80;21045;-55
2021/10/10 08:19:06;;;;;;;14.40;4.70;;;;;;;8.79;49.58;101250.48;1731442;80;21346;-55
2021/10/10 08:21:33;;;;;;;10.73;3.33;;;;;;;8.91;49.16;101259.68;1739916;81;20902;-55
2021/10/10 08:24:05;;;;;;;15.10;4.70;;;;;;;9.05;48.30;101253.59;1734297;80;21318;-55
2021/10/10 08:26:30;;;;;;;13.40;4.33;;;;;;;9.20;47.96;101249.73;1732438;80;21666;-55
2021/10/10 08:28:57;;;;;;;13.17;5.53;;;;;;;9.36;47.29;101248.97;1735327;81;22177;-55
2021/10/10 08:31:24;;;;;;;15.47;5.70;;;;;;;9.51;46.72;101251.38;1729336;80;21069;-55
2021/10/10 08:33:51;;;;;;;12.53;5.57;;;;;;;9.67;46.18;101246.11;1735725;81;21558;-55
2021/10/10 08:36:17;;;;;;;10.03;3.60;;;;;;;9.85;45.37;101246.19;1732254;80;21128;-55
2021/10/10 08:38:44;;;;;;;15.90;4.13;;;;;;;10.03;44.55;101246.24;1734115;80;21051;-57
2021/10/10 08:41:11;;;;;;;10.10;4.50;;;;;;;10.18;43.50;101243.23;1731920;80;21609;-56
2021/10/10 08:43:38;;;;;;;12.55;4.47;;;;;;;10.28;43.32;101238.53;1732411;80;22320;-55
2021/10/10 08:46:05;;;;;;;11.30;3.23;;;;;;;10.37;42.70;101241.89;1729987;80;21559;-55
2021/10/10 08:48:32;;;;;;;12.10;3.42;;;;;;;10.43;42.12;101235.00;1736367;80;21494;-56
2021/10/10 08:50:59;;;;;;;10.58;3.72;;;;;;;10.46;42.23;101232.22;1733991;80;21423;-56
2021/10/10 08:53:25;;;;;;;11.33;4.03;;;;;;;10.49;41.51;101232.16;1736300;80;21437;-55
2021/10/10 08:55:52;;;;;;;8.90;2.20;;;;;;;10.55;42.04;101237.37;1741257;80;20861;-55
2021/10/10 08:58:25;;;;;;;7.03;2.05;;;;;;;10.63;42.22;101238.07;1759807;80;20978;-55
2021/10/10 09:00:51;;;;;;;7.62;2.10;;;;;;;10.75;41.79;101230.62;1736607;80;20885;-55
2021/10/10 09:03:18;;;;;;;9.33;3.37;;;;;;;10.83;41.64;101228.15;1742360;81;22153;-55
2021/10/10 09:05:47;;;;;;;9.28;4.28;;;;;;;10.90;41.31;101228.41;1736241;80;20949;-55
2021/10/10 09:08:13;;;;;;;7.67;3.25;;;;;;;10.95;41.72;101231.00;1753043;80;20924;-56
2021/10/10 09:10:40;;;;;;;10.10;2.98;;;;;;;11.03;42.00;101225.40;1738580;80;20955;-56
2021/10/10 09:13:12;;;;;;;8.45;2.80;;;;;;;11.10;41.80;101229.23;1734653;80;21678;-55
2021/10/10 09:15:48;;;;;;;9.48;3.35;;;;;;;11.16;41.39;101230.41;1730004;80;22057;-55
2021/10/10 09:18:15;;;;;;;15.20;5.22;;;;;;;11.23;41.32;101223.03;1726039;80;21069;-56
2021/10/10 09:20:44;;;;;;;7.58;3.40;;;;;;;11.31;41.23;101223.23;1750286;80;21278;-55
2021/10/10 09:23:19;;;;;;;6.17;2.00;;;;;;;11.37;40.66;101220.85;1716774;81;21060;-55
2021/10/10 09:26:00;;;;;;;4.20;2.15;;;;;;;11.39;40.49;101208.22;1732005;80;21225;-55
2021/10/10 09:28:28;;;;;;;7.83;2.62;;;;;;;11.44;40.25;101209.42;1735225;80;21100;-56
2021/10/10 09:31:03;;;;;;;5.75;2.22;;;;;;;11.50;40.59;101214.63;1752463;80;20993;-55
2021/10/10 09:33:50;;;;;;;15.03;2.60;;;;;;;11.54;40.61;101210.94;1735475;81;21079;-56
2021/10/10 09:36:25;;;;;;;4.40;1.40;;;;;;;11.62;40.29;101211.59;1737948;81;21032;-56
2021/10/10 09:39:15;;;;;;;7.17;1.32;;;;;;;11.69;39.75;101215.41;1739613;80;21715;-56
2021/10/10 09:41:47;;;;;;;3.02;1.25;;;;;;;11.76;39.45;101206.70;1737588;80;21171;-56
2021/10/10 09:44:17;;;;;;;7.05;2.75;;;;;;;11.83;39.14;101208.73;1736873;80;21056;-56
2021/10/10 09:46:46;;;;;;;12.43;2.30;;;;;;;11.88;39.33;101206.80;1743661;80;21039;-56
2021/10/10 09:49:24;;;;;;;7.75;2.58;;;;;;;11.95;39.40;101200.28;1748522;80;21104;-55
2021/10/10 09:51:53;;;;;;;4.55;1.57;;;;;;;12.01;39.38;101200.96;1736789;80;21098;-58
2021/10/10 09:54:19;;;;;;;4.05;1.50;;;;;;;12.04;38.80;101200.88;1750264;80;20963;-56
2021/10/10 09:57:06;;;;;;;6.22;2.12;;;;;;;12.05;38.82;101201.30;1738363;79;21384;-57
2021/10/10 09:59:33;;;;;;;10.15;3.67;;;;;;;12.07;39.05;101200.80;1768453;80;21049;-56
2021/10/10 10:01:59;;;;;;;6.00;2.00;;;;;;;12.12;38.79;101196.13;1770678;80;20990;-57
2021/10/10 10:04:26;;;;;;;3.90;2.10;;;;;;;12.15;37.56;101192.45;1732509;81;21068;-55
2021/10/10 10:06:53;;;;;;;4.28;2.40;;;;;;;12.11;38.27;101192.12;1721185;81;21088;-56
2021/10/10 10:09:19;;;;;;;4.72;3.12;;;;;;;12.09;38.28;101193.51;1731693;81;21329;-56
2021/10/10 10:11:47;;;;;;;2.35;1.00;;;;;;;12.11;38.33;101186.25;1732248;81;21038;-56
2021/10/10 10:14:16;;;;;;;2.95;1.07;;;;;;;12.17;38.14;101196.42;1726417;81;21491;-56
2021/10/10 10:16:49;;;;;;;4.17;1.35;;;;;;;12.23;37.76;101189.50;1724420;81;21082;-57
2021/10/10 10:19:21;;;;;;;11.57;1.47;;;;;;;12.27;37.55;101185.75;1765699;79;21101;-56
2021/10/10 10:21:52;;;;;;;;;;;;;;;12.27;37.78;101186.64;1733091;81;21483;-56
2021/10/10 10:24:18;;;;;;;2.90;1.27;;;;;;;12.30;37.65;101191.95;1763217;80;20242;-57
2021/10/10 10:26:44;;;;;;;4.40;1.35;;;;;;;12.27;37.84;101185.75;1762762;80;21080;-57
2021/10/10 10:29:23;;;;;;;4.20;1.57;;;;;;;12.23;37.11;101189.04;1763468;80;21107;-57
2021/10/10 10:31:48;;;;;;;5.03;1.35;;;;;;;12.16;37.67;101183.42;1768920;80;21242;-57
2021/10/10 10:34:28;;;;;;;5.20;1.42;;;;;;;12.12;37.75;101181.73;1766187;80;21132;-57
2021/10/10 10:37:08;;;;;;;4.28;1.30;;;;;;;12.09;37.31;101179.13;1763590;80;21510;-57
2021/10/10 10:39:49;;;;;;;5.87;2.35;;;;;;;12.08;37.41;101182.29;1768845;79;21084;-57
2021/10/10 10:42:30;;;;;;;10.88;2.33;;;;;;;12.07;37.90;101180.55;1729860;81;22176;-56
2021/10/10 10:44:57;;;;;;;8.38;2.50;;;;;;;12.14;38.08;101178.53;1724028;81;21222;-56
2021/10/10 10:47:26;;;;;;;16.10;8.70;;;;;;;12.20;37.47;101174.74;1724016;81;21079;-56
2021/10/10 10:49:59;;;;;;;3.62;1.60;;;;;;;12.26;37.45;101176.77;1771049;79;21420;-57
2021/10/10 10:52:41;;;;;;;15.98;2.33;;;;;;;12.34;37.08;101171.11;1733016;80;21096;-57
2021/10/10 10:55:36;;;;;;;8.45;1.00;;;;;;;12.39;37.27;101167.35;1749615;80;20911;-55
2021/10/10 10:58:10;;;;;;;2.25;0.90;;;;;;;12.40;36.66;101166.42;1781831;78;22162;-57
2021/10/10 11:00:43;;;;;;;2.40;0.80;;;;;;;12.43;36.47;101158.20;1749621;80;21034;-57
2021/10/10 11:03:26;;;;;;;3.58;0.90;;;;;;;12.46;36.25;101161.27;1744850;80;21115;-57
2021/10/10 11:05:55;;;;;;;3.67;1.00;;;;;;;12.49;36.27;101158.48;1777873;78;21092;-57
2021/10/10 11:08:32;;;;;;;2.17;1.00;;;;;;;12.51;36.50;101161.52;1779079;78;21082;-57
2021/10/10 11:11:17;;;;;;;4.60;1.20;;;;;;;12.54;36.32;101152.91;1777953;79;21479;-56
2021/10/10 11:14:00;;;;;;;2.25;1.10;;;;;;;12.58;36.34;101160.87;1778879;79;20981;-56
2021/10/10 11:16:32;;;;;;;2.42;1.15;;;;;;;12.61;36.45;101158.50;1764750;79;21076;-57
2021/10/10 11:19:08;;;;;;;5.85;1.20;;;;;;;12.65;36.52;101153.43;1765257;79;21012;-56
2021/10/10 11:21:41;;;;;;;3.10;1.07;;;;;;;12.69;36.72;101142.45;1760726;79;21064;-56
2021/10/10 11:24:22;;;;;;;3.40;1.15;;;;;;;12.72;36.38;101143.70;1766307;79;21576;-56
2021/10/10 11:26:51;;;;;;;4.47;0.80;;;;;;;12.76;36.06;101143.99;1764222;79;21354;-56